Volcan De Tauce — EAGW — position and weather

sailwx.info

Track history (hours):
 
Tides and Currents Weather Stations Pressure Air Temp Water Temp Dewpoint Dewpoint Depression Visibility Wind Speed Wind Dir Waves Ship Positions

Volcan De Tauce

Last reported at 2015-Apr-16 03:31 UTC. Time now 2015-Apr-19 19:08 UTC.
Position N 28°08' W 014°04'.

Length 120 m; draft 4.5 m.

Type: Passenger vessel. MMSI: 224761000.

Date/timePositionNaut miles runAvg speedWind from/ knotsBaromVisibWave heightAir tempDewpointWater temp
2015-Apr-16 03:31N 28°08' W 014°04'3015.1
2015-Apr-16 01:33N 28°02' W 014°37'1615.8
2015-Apr-16 00:33N 28°04' W 014°55'1615.6
2015-Apr-15 23:33N 28°06' W 015°12'11 9.7
2015-Apr-15 22:25N 28°08' W 015°25'0 0.0
2015-Apr-15 21:28N 28°08' W 015°25'0 0.0
2015-Apr-15 20:28N 28°08' W 015°25'0 0.0
2015-Apr-15 19:28N 28°08' W 015°25'0 0.0
2015-Apr-15 18:31N 28°08' W 015°25'0 0.0
2015-Apr-15 17:28N 28°08' W 015°25'0 0.0
2015-Apr-15 16:33N 28°08' W 015°25'1211.8
2015-Apr-15 15:33N 28°06' W 015°12'1616.2
2015-Apr-15 14:33N 28°04' W 014°54'1616.2
2015-Apr-15 13:33N 28°02' W 014°35'1816.2
2015-Apr-15 12:26N 28°03' W 014°15'12 1.4
2015-Apr-15 04:15N 28°09' W 014°03'2915.3
2015-Apr-15 02:21N 28°01' W 014°35'810.3
2015-Apr-15 01:33N 28°03' W 014°44'1312.6
2015-Apr-15 00:33N 28°04' W 014°58'1515.4
2015-Apr-14 23:33N 28°06' W 015°16'8 7.9
2015-Apr-14 22:30N 28°08' W 015°25'0 0.0
2015-Apr-14 21:33N 28°08' W 015°25'0 0.0
2015-Apr-14 20:33N 28°08' W 015°25'0 0.0
2015-Apr-14 19:33N 28°08' W 015°25'0 0.0
2015-Apr-14 18:30N 28°08' W 015°25'0 0.0
2015-Apr-14 17:33N 28°08' W 015°25'1 1.0
2015-Apr-14 16:33N 28°07' W 015°24'1414.3
2015-Apr-14 15:33N 28°06' W 015°08'1515.3
2015-Apr-14 14:34N 28°03' W 014°51'1615.8
2015-Apr-14 13:33N 28°02' W 014°33'1915.8
2015-Apr-14 12:22N 28°04' W 014°12'8 0.9
2015-Apr-14 03:32N 28°08' W 014°04'3115.6
2015-Apr-14 01:32N 28°03' W 014°39'1616.3
2015-Apr-14 00:33N 28°05' W 014°57'1716.5
2015-Apr-13 23:33N 28°07' W 015°16'8 8.2
2015-Apr-13 22:33N 28°08' W 015°25'0 0.0
2015-Apr-13 21:33N 28°08' W 015°25'0 0.0
2015-Apr-13 20:33N 28°08' W 015°25'0 0.0
2015-Apr-13 19:33N 28°08' W 015°25'0 0.0
2015-Apr-13 18:33N 28°08' W 015°25'0 0.0
2015-Apr-13 17:33N 28°08' W 015°25'0 0.0
2015-Apr-13 16:33N 28°08' W 015°25'0 0.0
2015-Apr-13 15:33N 28°08' W 015°25'0 0.0
2015-Apr-13 14:33N 28°08' W 015°25'0 0.0
2015-Apr-13 13:33N 28°08' W 015°25'0 0.0
2015-Apr-13 12:33N 28°08' W 015°25'0 0.0
2015-Apr-13 11:33N 28°08' W 015°25'0 0.0
2015-Apr-13 10:33N 28°08' W 015°25'0 0.0
2015-Apr-13 09:33N 28°08' W 015°25'0 0.0
2015-Apr-13 08:33N 28°08' W 015°25'0 0.0
2015-Apr-13 07:33N 28°08' W 015°25'0 0.0
2015-Apr-13 06:33N 28°08' W 015°25'0 0.0
2015-Apr-13 05:33N 28°08' W 015°25'0 0.0
2015-Apr-13 04:33N 28°08' W 015°25'0 0.0
2015-Apr-13 03:33N 28°08' W 015°25'0 0.0
2015-Apr-13 02:33N 28°08' W 015°25'0 0.0
2015-Apr-13 01:33N 28°08' W 015°25'0 0.0
2015-Apr-13 00:33N 28°08' W 015°25'0 0.0
2015-Apr-12 23:33N 28°08' W 015°25'0 0.0
2015-Apr-12 22:33N 28°08' W 015°25'0 0.0
2015-Apr-12 21:33N 28°08' W 015°25'0 0.0
2015-Apr-12 20:33N 28°08' W 015°25'0 0.0
2015-Apr-12 19:33N 28°08' W 015°25'0 0.0
2015-Apr-12 18:33N 28°08' W 015°25'0 0.0
2015-Apr-12 17:33N 28°08' W 015°25'0 0.0
2015-Apr-12 16:33N 28°08' W 015°25'0 0.0
2015-Apr-12 15:33N 28°08' W 015°25'0 0.0
2015-Apr-12 14:33N 28°08' W 015°25'0 0.0
2015-Apr-12 13:33N 28°08' W 015°25'0 0.0
2015-Apr-12 12:33N 28°08' W 015°25'0 0.0
2015-Apr-12 11:33N 28°08' W 015°25'0 0.0
2015-Apr-12 10:33N 28°08' W 015°25'0 0.0
2015-Apr-12 09:33N 28°08' W 015°25'0 0.0
2015-Apr-12 08:33N 28°08' W 015°25'0 0.0
2015-Apr-12 07:33N 28°08' W 015°25'0 0.0
2015-Apr-12 06:33N 28°08' W 015°25'0 0.0
2015-Apr-12 05:33N 28°08' W 015°25'0 0.0
2015-Apr-12 04:33N 28°08' W 015°25'0 0.0
2015-Apr-12 03:33N 28°08' W 015°25'0 0.0
2015-Apr-12 02:33N 28°08' W 015°25'0 0.0
2015-Apr-12 01:33N 28°08' W 015°25'0 0.0
2015-Apr-12 00:33N 28°08' W 015°25'0 0.0
2015-Apr-11 23:32N 28°08' W 015°25'0 0.0
2015-Apr-11 22:33N 28°08' W 015°25'0 0.0
2015-Apr-11 21:33N 28°08' W 015°25'0 0.0
2015-Apr-11 20:33N 28°08' W 015°25'0 0.0
2015-Apr-11 19:33N 28°08' W 015°25'0 0.0
2015-Apr-11 18:33N 28°08' W 015°25'0 0.0
2015-Apr-11 17:33N 28°08' W 015°25'0 0.0
2015-Apr-11 16:33N 28°08' W 015°25'1110.7
2015-Apr-11 15:33N 28°06' W 015°13'1616.1
2015-Apr-11 14:33N 28°04' W 014°55'1616.4
2015-Apr-11 13:33N 28°02' W 014°36'1816.4
2015-Apr-11 12:26N 28°03' W 014°16'33 4.5
2015-Apr-11 05:09N 28°27' W 013°50'2414.7
2015-Apr-11 03:33N 28°08' W 014°05'3015.0
2015-Apr-11 01:33N 28°03' W 014°39'1515.3
2015-Apr-11 00:33N 28°04' W 014°56'1615.6
2015-Apr-10 23:33N 28°06' W 015°13'10 9.1
2015-Apr-10 22:26N 28°08' W 015°25'0 0.0
2015-Apr-10 21:26N 28°08' W 015°25'0 0.0
2015-Apr-10 20:29N 28°08' W 015°25'0 0.0
2015-Apr-10 19:29N 28°08' W 015°25'0 0.0
2015-Apr-10 18:29N 28°08' W 015°25'0 0.0
2015-Apr-10 17:32N 28°08' W 015°25'0 0.0
2015-Apr-10 16:33N 28°08' W 015°25'1212.1
2015-Apr-10 15:33N 28°06' W 015°11'1615.9
2015-Apr-10 14:33N 28°04' W 014°53'1616.1
2015-Apr-10 13:33N 28°02' W 014°35'1616.2
2015-Apr-10 12:34N 28°02' W 014°17'14 1.7
2015-Apr-10 04:17N 28°09' W 014°03'3115.3
2015-Apr-10 02:18N 28°02' W 014°37'1115.5
2015-Apr-10 01:33N 28°04' W 014°50'1615.6
2015-Apr-10 00:33N 28°06' W 015°07'1515.3
2015-Apr-09 23:33N 28°08' W 015°25'1 0.7
2015-Apr-09 22:32N 28°08' W 015°25'0 0.0
2015-Apr-09 21:32N 28°08' W 015°25'0 0.0
2015-Apr-09 20:32N 28°08' W 015°25'0 0.0
2015-Apr-09 19:32N 28°08' W 015°25'0 0.0
2015-Apr-09 18:32N 28°08' W 015°25'0 0.0
2015-Apr-09 17:32N 28°08' W 015°25'0 0.0
2015-Apr-09 16:34N 28°08' W 015°25'1111.3
2015-Apr-09 15:33N 28°06' W 015°12'1615.9
2015-Apr-09 14:33N 28°04' W 014°54'1616.1
2015-Apr-09 13:33N 28°02' W 014°36'1616.1
2015-Apr-09 12:33N 28°02' W 014°18'15 1.6
2015-Apr-09 03:28N 28°09' W 014°03'3015.5
2015-Apr-09 01:33N 28°02' W 014°36'1616.0
2015-Apr-09 00:33N 28°04' W 014°54'1616.0
2015-Apr-08 23:33N 28°06' W 015°12'1211.6
2015-Apr-08 22:33N 28°08' W 015°25'0 0.0
2015-Apr-08 21:33N 28°08' W 015°25'0 0.0
2015-Apr-08 20:33N 28°08' W 015°25'0 0.0
2015-Apr-08 19:33N 28°08' W 015°25'0 0.0
2015-Apr-08 18:33N 28°08' W 015°25'0 0.0
2015-Apr-08 17:33N 28°08' W 015°25'2 1.7
2015-Apr-08 16:33N 28°07' W 015°24'1615.9
2015-Apr-08 15:33N 28°05' W 015°06'1615.6
2015-Apr-08 14:33N 28°03' W 014°48'1615.6
2015-Apr-08 13:33N 28°02' W 014°31'1615.4
2015-Apr-08 12:32N 28°04' W 014°13'1 0.1
2015-Apr-08 03:19N 28°04' W 014°13'1515.2
2015-Apr-08 02:21N 28°02' W 014°30'1215.5
2015-Apr-08 01:33N 28°03' W 014°44'1615.6
2015-Apr-08 00:33N 28°05' W 015°01'1615.6
2015-Apr-07 23:33N 28°07' W 015°19'5 4.6
2015-Apr-07 22:23N 28°08' W 015°25'0 0.0
2015-Apr-07 21:26N 28°08' W 015°25'0 0.0
2015-Apr-07 20:26N 28°08' W 015°25'0 0.0
2015-Apr-07 19:29N 28°08' W 015°25'0 0.0
2015-Apr-07 18:33N 28°08' W 015°25'0 0.0
2015-Apr-07 17:33N 28°08' W 015°25'2 2.2
2015-Apr-07 16:33N 28°07' W 015°23'1615.9
2015-Apr-07 15:33N 28°05' W 015°05'1615.4
2015-Apr-07 14:33N 28°03' W 014°47'1515.2
2015-Apr-07 13:33N 28°02' W 014°30'1615.4
2015-Apr-07 12:32N 28°05' W 014°13'28 3.8
2015-Apr-07 05:17N 28°23' W 013°49'1915.3
2015-Apr-07 04:04N 28°09' W 014°03'916.3
2015-Apr-07 03:29N 28°05' W 014°12'1915.2
2015-Apr-07 02:12N 28°02' W 014°34'1116.2
2015-Apr-07 01:33N 28°03' W 014°46'1616.0
2015-Apr-07 00:33N 28°05' W 015°04'1615.9
2015-Apr-06 23:33N 28°07' W 015°22'3 2.9
2015-Apr-06 22:33N 28°09' W 015°25'0 0.0
2015-Apr-06 21:33N 28°09' W 015°25'0 0.0
2015-Apr-06 20:24N 28°09' W 015°25'0 0.0
2015-Apr-06 19:31N 28°09' W 015°25'0 0.0
2015-Apr-06 18:33N 28°09' W 015°25'0 0.0
2015-Apr-06 17:33N 28°09' W 015°25'0 0.0
2015-Apr-06 16:33N 28°09' W 015°25'0 0.4
2015-Apr-06 15:30N 28°09' W 015°25'0 0.0
2015-Apr-06 14:33N 28°09' W 015°25'0 0.0
2015-Apr-06 13:33N 28°09' W 015°25'0 0.0
2015-Apr-06 12:33N 28°09' W 015°25'0 0.0
2015-Apr-06 11:33N 28°09' W 015°25'0 0.0
2015-Apr-06 10:33N 28°09' W 015°25'0 0.0
2015-Apr-06 09:24N 28°09' W 015°25'0 0.0
2015-Apr-06 08:27N 28°09' W 015°25'0 0.0
2015-Apr-06 07:27N 28°09' W 015°25'0 0.0
2015-Apr-06 06:27N 28°09' W 015°25'0 0.0
2015-Apr-06 05:30N 28°09' W 015°25'0 0.0
2015-Apr-06 04:30N 28°09' W 015°25'0 0.0
2015-Apr-06 03:33N 28°09' W 015°25'  
Track history (hours):
 
Tides and Currents Weather Stations Pressure Air Temp Water Temp Dewpoint Dewpoint Depression Visibility Wind Speed Wind Dir Waves Ship Positions

Volcan De Tauce

Last reported at 2015-Apr-16 03:31 UTC. Time now 2015-Apr-19 19:08 UTC.
Position N 28°08' W 014°04'.

Length 120 m; draft 4.5 m.

Type: Passenger vessel. MMSI: 224761000.

Date/timePositionNaut miles runAvg speedWind from/ knotsBaromVisibWave heightAir tempDewpointWater temp
2015-Apr-16 03:31N 28°08' W 014°04'3015.1
2015-Apr-16 01:33N 28°02' W 014°37'1615.8
2015-Apr-16 00:33N 28°04' W 014°55'1615.6
2015-Apr-15 23:33N 28°06' W 015°12'11 9.7
2015-Apr-15 22:25N 28°08' W 015°25'0 0.0
2015-Apr-15 21:28N 28°08' W 015°25'0 0.0
2015-Apr-15 20:28N 28°08' W 015°25'0 0.0
2015-Apr-15 19:28N 28°08' W 015°25'0 0.0
2015-Apr-15 18:31N 28°08' W 015°25'0 0.0
2015-Apr-15 17:28N 28°08' W 015°25'0 0.0
2015-Apr-15 16:33N 28°08' W 015°25'1211.8
2015-Apr-15 15:33N 28°06' W 015°12'1616.2
2015-Apr-15 14:33N 28°04' W 014°54'1616.2
2015-Apr-15 13:33N 28°02' W 014°35'1816.2
2015-Apr-15 12:26N 28°03' W 014°15'12 1.4
2015-Apr-15 04:15N 28°09' W 014°03'2915.3
2015-Apr-15 02:21N 28°01' W 014°35'810.3
2015-Apr-15 01:33N 28°03' W 014°44'1312.6
2015-Apr-15 00:33N 28°04' W 014°58'1515.4
2015-Apr-14 23:33N 28°06' W 015°16'8 7.9
2015-Apr-14 22:30N 28°08' W 015°25'0 0.0
2015-Apr-14 21:33N 28°08' W 015°25'0 0.0
2015-Apr-14 20:33N 28°08' W 015°25'0 0.0
2015-Apr-14 19:33N 28°08' W 015°25'0 0.0
2015-Apr-14 18:30N 28°08' W 015°25'0 0.0
2015-Apr-14 17:33N 28°08' W 015°25'1 1.0
2015-Apr-14 16:33N 28°07' W 015°24'1414.3
2015-Apr-14 15:33N 28°06' W 015°08'1515.3
2015-Apr-14 14:34N 28°03' W 014°51'1615.8
2015-Apr-14 13:33N 28°02' W 014°33'1915.8
2015-Apr-14 12:22N 28°04' W 014°12'8 0.9
2015-Apr-14 03:32N 28°08' W 014°04'3115.6
2015-Apr-14 01:32N 28°03' W 014°39'1616.3
2015-Apr-14 00:33N 28°05' W 014°57'1716.5
2015-Apr-13 23:33N 28°07' W 015°16'8 8.2
2015-Apr-13 22:33N 28°08' W 015°25'0 0.0
2015-Apr-13 21:33N 28°08' W 015°25'0 0.0
2015-Apr-13 20:33N 28°08' W 015°25'0 0.0
2015-Apr-13 19:33N 28°08' W 015°25'0 0.0
2015-Apr-13 18:33N 28°08' W 015°25'0 0.0
2015-Apr-13 17:33N 28°08' W 015°25'0 0.0
2015-Apr-13 16:33N 28°08' W 015°25'0 0.0
2015-Apr-13 15:33N 28°08' W 015°25'0 0.0
2015-Apr-13 14:33N 28°08' W 015°25'0 0.0
2015-Apr-13 13:33N 28°08' W 015°25'0 0.0
2015-Apr-13 12:33N 28°08' W 015°25'0 0.0
2015-Apr-13 11:33N 28°08' W 015°25'0 0.0
2015-Apr-13 10:33N 28°08' W 015°25'0 0.0
2015-Apr-13 09:33N 28°08' W 015°25'0 0.0
2015-Apr-13 08:33N 28°08' W 015°25'0 0.0
2015-Apr-13 07:33N 28°08' W 015°25'0 0.0
2015-Apr-13 06:33N 28°08' W 015°25'0 0.0
2015-Apr-13 05:33N 28°08' W 015°25'0 0.0
2015-Apr-13 04:33N 28°08' W 015°25'0 0.0
2015-Apr-13 03:33N 28°08' W 015°25'0 0.0
2015-Apr-13 02:33N 28°08' W 015°25'0 0.0
2015-Apr-13 01:33N 28°08' W 015°25'0 0.0
2015-Apr-13 00:33N 28°08' W 015°25'0 0.0
2015-Apr-12 23:33N 28°08' W 015°25'0 0.0
2015-Apr-12 22:33N 28°08' W 015°25'0 0.0
2015-Apr-12 21:33N 28°08' W 015°25'0 0.0
2015-Apr-12 20:33N 28°08' W 015°25'0 0.0
2015-Apr-12 19:33N 28°08' W 015°25'0 0.0
2015-Apr-12 18:33N 28°08' W 015°25'0 0.0
2015-Apr-12 17:33N 28°08' W 015°25'0 0.0
2015-Apr-12 16:33N 28°08' W 015°25'0 0.0
2015-Apr-12 15:33N 28°08' W 015°25'0 0.0
2015-Apr-12 14:33N 28°08' W 015°25'0 0.0
2015-Apr-12 13:33N 28°08' W 015°25'0 0.0
2015-Apr-12 12:33N 28°08' W 015°25'0 0.0
2015-Apr-12 11:33N 28°08' W 015°25'0 0.0
2015-Apr-12 10:33N 28°08' W 015°25'0 0.0
2015-Apr-12 09:33N 28°08' W 015°25'0 0.0
2015-Apr-12 08:33N 28°08' W 015°25'0 0.0
2015-Apr-12 07:33N 28°08' W 015°25'0 0.0
2015-Apr-12 06:33N 28°08' W 015°25'0 0.0
2015-Apr-12 05:33N 28°08' W 015°25'0 0.0
2015-Apr-12 04:33N 28°08' W 015°25'0 0.0
2015-Apr-12 03:33N 28°08' W 015°25'0 0.0
2015-Apr-12 02:33N 28°08' W 015°25'0 0.0
2015-Apr-12 01:33N 28°08' W 015°25'0 0.0
2015-Apr-12 00:33N 28°08' W 015°25'0 0.0
2015-Apr-11 23:32N 28°08' W 015°25'0 0.0
2015-Apr-11 22:33N 28°08' W 015°25'0 0.0
2015-Apr-11 21:33N 28°08' W 015°25'0 0.0
2015-Apr-11 20:33N 28°08' W 015°25'0 0.0
2015-Apr-11 19:33N 28°08' W 015°25'0 0.0
2015-Apr-11 18:33N 28°08' W 015°25'0 0.0
2015-Apr-11 17:33N 28°08' W 015°25'0 0.0
2015-Apr-11 16:33N 28°08' W 015°25'1110.7
2015-Apr-11 15:33N 28°06' W 015°13'1616.1
2015-Apr-11 14:33N 28°04' W 014°55'1616.4
2015-Apr-11 13:33N 28°02' W 014°36'1816.4
2015-Apr-11 12:26N 28°03' W 014°16'33 4.5
2015-Apr-11 05:09N 28°27' W 013°50'2414.7
2015-Apr-11 03:33N 28°08' W 014°05'3015.0
2015-Apr-11 01:33N 28°03' W 014°39'1515.3
2015-Apr-11 00:33N 28°04' W 014°56'1615.6
2015-Apr-10 23:33N 28°06' W 015°13'10 9.1
2015-Apr-10 22:26N 28°08' W 015°25'0 0.0
2015-Apr-10 21:26N 28°08' W 015°25'0 0.0
2015-Apr-10 20:29N 28°08' W 015°25'0 0.0
2015-Apr-10 19:29N 28°08' W 015°25'0 0.0
2015-Apr-10 18:29N 28°08' W 015°25'0 0.0
2015-Apr-10 17:32N 28°08' W 015°25'0 0.0
2015-Apr-10 16:33N 28°08' W 015°25'1212.1
2015-Apr-10 15:33N 28°06' W 015°11'1615.9
2015-Apr-10 14:33N 28°04' W 014°53'1616.1
2015-Apr-10 13:33N 28°02' W 014°35'1616.2
2015-Apr-10 12:34N 28°02' W 014°17'14 1.7
2015-Apr-10 04:17N 28°09' W 014°03'3115.3
2015-Apr-10 02:18N 28°02' W 014°37'1115.5
2015-Apr-10 01:33N 28°04' W 014°50'1615.6
2015-Apr-10 00:33N 28°06' W 015°07'1515.3
2015-Apr-09 23:33N 28°08' W 015°25'1 0.7
2015-Apr-09 22:32N 28°08' W 015°25'0 0.0
2015-Apr-09 21:32N 28°08' W 015°25'0 0.0
2015-Apr-09 20:32N 28°08' W 015°25'0 0.0
2015-Apr-09 19:32N 28°08' W 015°25'0 0.0
2015-Apr-09 18:32N 28°08' W 015°25'0 0.0
2015-Apr-09 17:32N 28°08' W 015°25'0 0.0
2015-Apr-09 16:34N 28°08' W 015°25'1111.3
2015-Apr-09 15:33N 28°06' W 015°12'1615.9
2015-Apr-09 14:33N 28°04' W 014°54'1616.1
2015-Apr-09 13:33N 28°02' W 014°36'1616.1
2015-Apr-09 12:33N 28°02' W 014°18'15 1.6
2015-Apr-09 03:28N 28°09' W 014°03'3015.5
2015-Apr-09 01:33N 28°02' W 014°36'1616.0
2015-Apr-09 00:33N 28°04' W 014°54'1616.0
2015-Apr-08 23:33N 28°06' W 015°12'1211.6
2015-Apr-08 22:33N 28°08' W 015°25'0 0.0
2015-Apr-08 21:33N 28°08' W 015°25'0 0.0
2015-Apr-08 20:33N 28°08' W 015°25'0 0.0
2015-Apr-08 19:33N 28°08' W 015°25'0 0.0
2015-Apr-08 18:33N 28°08' W 015°25'0 0.0
2015-Apr-08 17:33N 28°08' W 015°25'2 1.7
2015-Apr-08 16:33N 28°07' W 015°24'1615.9
2015-Apr-08 15:33N 28°05' W 015°06'1615.6
2015-Apr-08 14:33N 28°03' W 014°48'1615.6
2015-Apr-08 13:33N 28°02' W 014°31'1615.4
2015-Apr-08 12:32N 28°04' W 014°13'1 0.1
2015-Apr-08 03:19N 28°04' W 014°13'1515.2
2015-Apr-08 02:21N 28°02' W 014°30'1215.5
2015-Apr-08 01:33N 28°03' W 014°44'1615.6
2015-Apr-08 00:33N 28°05' W 015°01'1615.6
2015-Apr-07 23:33N 28°07' W 015°19'5 4.6
2015-Apr-07 22:23N 28°08' W 015°25'0 0.0
2015-Apr-07 21:26N 28°08' W 015°25'0 0.0
2015-Apr-07 20:26N 28°08' W 015°25'0 0.0
2015-Apr-07 19:29N 28°08' W 015°25'0 0.0
2015-Apr-07 18:33N 28°08' W 015°25'0 0.0
2015-Apr-07 17:33N 28°08' W 015°25'2 2.2
2015-Apr-07 16:33N 28°07' W 015°23'1615.9
2015-Apr-07 15:33N 28°05' W 015°05'1615.4
2015-Apr-07 14:33N 28°03' W 014°47'1515.2
2015-Apr-07 13:33N 28°02' W 014°30'1615.4
2015-Apr-07 12:32N 28°05' W 014°13'28 3.8
2015-Apr-07 05:17N 28°23' W 013°49'1915.3
2015-Apr-07 04:04N 28°09' W 014°03'916.3
2015-Apr-07 03:29N 28°05' W 014°12'1915.2
2015-Apr-07 02:12N 28°02' W 014°34'1116.2
2015-Apr-07 01:33N 28°03' W 014°46'1616.0
2015-Apr-07 00:33N 28°05' W 015°04'1615.9
2015-Apr-06 23:33N 28°07' W 015°22'3 2.9
2015-Apr-06 22:33N 28°09' W 015°25'0 0.0
2015-Apr-06 21:33N 28°09' W 015°25'0 0.0
2015-Apr-06 20:24N 28°09' W 015°25'0 0.0
2015-Apr-06 19:31N 28°09' W 015°25'0 0.0
2015-Apr-06 18:33N 28°09' W 015°25'0 0.0
2015-Apr-06 17:33N 28°09' W 015°25'0 0.0
2015-Apr-06 16:33N 28°09' W 015°25'0 0.4
2015-Apr-06 15:30N 28°09' W 015°25'0 0.0
2015-Apr-06 14:33N 28°09' W 015°25'0 0.0
2015-Apr-06 13:33N 28°09' W 015°25'0 0.0
2015-Apr-06 12:33N 28°09' W 015°25'0 0.0
2015-Apr-06 11:33N 28°09' W 015°25'0 0.0
2015-Apr-06 10:33N 28°09' W 015°25'0 0.0
2015-Apr-06 09:24N 28°09' W 015°25'0 0.0
2015-Apr-06 08:27N 28°09' W 015°25'0 0.0
2015-Apr-06 07:27N 28°09' W 015°25'0 0.0
2015-Apr-06 06:27N 28°09' W 015°25'0 0.0
2015-Apr-06 05:30N 28°09' W 015°25'0 0.0
2015-Apr-06 04:30N 28°09' W 015°25'0 0.0
2015-Apr-06 03:33N 28°09' W 015°25'  

Dump ship's entire track history